sensor_id;sensor_type;location;lat;lon;timestamp;pressure;altitude;pressure_sealevel;temperature;humidity
54924;BME280;40825;52.270;20.984;2022-09-25T00:00:16;100510.23;;;9.06;72.33
54924;BME280;40825;52.270;20.984;2022-09-25T00:00:58;100506.26;;;9.06;72.86
54924;BME280;40825;52.270;20.984;2022-09-25T00:01:32;100503.01;;;9.05;71.95
54924;BME280;40825;52.270;20.984;2022-09-25T00:01:53;100505.91;;;9.04;72.24
54924;BME280;40825;52.270;20.984;2022-09-25T00:02:15;100504.88;;;9.04;71.93
54924;BME280;40825;52.270;20.984;2022-09-25T00:02:36;100506.41;;;9.03;72.10
54924;BME280;40825;52.270;20.984;2022-09-25T00:03:00;100507.14;;;9.03;72.07
54924;BME280;40825;52.270;20.984;2022-09-25T00:03:23;100506.48;;;9.02;72.39
54924;BME280;40825;52.270;20.984;2022-09-25T00:03:45;100506.42;;;9.01;71.69
54924;BME280;40825;52.270;20.984;2022-09-25T00:04:07;100508.25;;;9.01;71.51
54924;BME280;40825;52.270;20.984;2022-09-25T00:04:29;100510.09;;;9.00;71.48
54924;BME280;40825;52.270;20.984;2022-09-25T00:04:50;100512.63;;;9.00;71.61
54924;BME280;40825;52.270;20.984;2022-09-25T00:05:11;100510.56;;;8.99;72.27
54924;BME280;40825;52.270;20.984;2022-09-25T00:05:34;100504.94;;;8.99;71.89
54924;BME280;40825;52.270;20.984;2022-09-25T00:06:14;100509.63;;;8.98;71.57
54924;BME280;40825;52.270;20.984;2022-09-25T00:06:36;100509.59;;;8.97;72.40
54924;BME280;40825;52.270;20.984;2022-09-25T00:06:59;100512.09;;;8.97;72.62
54924;BME280;40825;52.270;20.984;2022-09-25T00:07:20;100507.40;;;8.96;72.47
54924;BME280;40825;52.270;20.984;2022-09-25T00:07:42;100508.73;;;8.95;72.45
54924;BME280;40825;52.270;20.984;2022-09-25T00:08:03;100508.42;;;8.94;73.28
54924;BME280;40825;52.270;20.984;2022-09-25T00:08:25;100507.58;;;8.93;72.52
54924;BME280;40825;52.270;20.984;2022-09-25T00:08:47;100502.94;;;8.91;71.86
54924;BME280;40825;52.270;20.984;2022-09-25T00:09:09;100503.06;;;8.90;72.00
54924;BME280;40825;52.270;20.984;2022-09-25T00:09:31;100505.77;;;8.90;72.45
54924;BME280;40825;52.270;20.984;2022-09-25T00:09:52;100503.59;;;8.89;72.21
54924;BME280;40825;52.270;20.984;2022-09-25T00:10:14;100504.26;;;8.88;72.08
54924;BME280;40825;52.270;20.984;2022-09-25T00:10:42;100503.23;;;8.87;71.80
54924;BME280;40825;52.270;20.984;2022-09-25T00:11:15;100501.64;;;8.86;72.31
54924;BME280;40825;52.270;20.984;2022-09-25T00:11:37;100504.58;;;8.85;72.35
54924;BME280;40825;52.270;20.984;2022-09-25T00:11:59;100505.12;;;8.83;71.81
54924;BME280;40825;52.270;20.984;2022-09-25T00:12:21;100503.38;;;8.81;71.67
54924;BME280;40825;52.270;20.984;2022-09-25T00:12:42;100501.97;;;8.81;72.10
54924;BME280;40825;52.270;20.984;2022-09-25T00:13:04;100498.99;;;8.79;72.00
54924;BME280;40825;52.270;20.984;2022-09-25T00:13:25;100502.09;;;8.78;72.22
54924;BME280;40825;52.270;20.984;2022-09-25T00:13:48;100502.63;;;8.77;72.07
54924;BME280;40825;52.270;20.984;2022-09-25T00:14:10;100504.29;;;8.76;71.81
54924;BME280;40825;52.270;20.984;2022-09-25T00:14:32;100502.64;;;8.75;72.29
54924;BME280;40825;52.270;20.984;2022-09-25T00:14:56;100505.95;;;8.74;72.24
54924;BME280;40825;52.270;20.984;2022-09-25T00:15:18;100503.71;;;8.73;71.67
54924;BME280;40825;52.270;20.984;2022-09-25T00:15:49;100500.34;;;8.72;71.88
54924;BME280;40825;52.270;20.984;2022-09-25T00:16:16;100503.94;;;8.72;71.85
54924;BME280;40825;52.270;20.984;2022-09-25T00:16:38;100500.73;;;8.70;72.07
54924;BME280;40825;52.270;20.984;2022-09-25T00:16:59;100504.37;;;8.69;72.04
54924;BME280;40825;52.270;20.984;2022-09-25T00:17:21;100504.35;;;8.68;71.77
54924;BME280;40825;52.270;20.984;2022-09-25T00:17:42;100503.95;;;8.67;71.54
54924;BME280;40825;52.270;20.984;2022-09-25T00:18:04;100499.64;;;8.65;71.43
54924;BME280;40825;52.270;20.984;2022-09-25T00:18:25;100504.50;;;8.65;71.54
54924;BME280;40825;52.270;20.984;2022-09-25T00:19:06;100504.69;;;8.63;71.48
54924;BME280;40825;52.270;20.984;2022-09-25T00:19:47;100503.02;;;8.62;72.00
54924;BME280;40825;52.270;20.984;2022-09-25T00:20:11;100501.71;;;8.61;72.00
54924;BME280;40825;52.270;20.984;2022-09-25T00:20:32;100501.36;;;8.61;71.51
54924;BME280;40825;52.270;20.984;2022-09-25T00:21:00;100502.03;;;8.60;71.57
54924;BME280;40825;52.270;20.984;2022-09-25T00:21:22;100504.11;;;8.59;71.55
54924;BME280;40825;52.270;20.984;2022-09-25T00:21:43;100503.14;;;8.58;71.63
54924;BME280;40825;52.270;20.984;2022-09-25T00:22:05;100501.31;;;8.57;71.61
54924;BME280;40825;52.270;20.984;2022-09-25T00:22:26;100502.45;;;8.57;71.76
54924;BME280;40825;52.270;20.984;2022-09-25T00:22:49;100504.30;;;8.56;71.66
54924;BME280;40825;52.270;20.984;2022-09-25T00:23:10;100503.99;;;8.56;71.67
54924;BME280;40825;52.270;20.984;2022-09-25T00:23:32;100503.89;;;8.55;71.67
54924;BME280;40825;52.270;20.984;2022-09-25T00:23:54;100501.27;;;8.54;71.59
54924;BME280;40825;52.270;20.984;2022-09-25T00:24:16;100502.03;;;8.54;72.11
54924;BME280;40825;52.270;20.984;2022-09-25T00:24:37;100502.46;;;8.53;72.00
54924;BME280;40825;52.270;20.984;2022-09-25T00:24:59;100503.53;;;8.53;71.75
54924;BME280;40825;52.270;20.984;2022-09-25T00:25:22;100499.41;;;8.52;71.51
54924;BME280;40825;52.270;20.984;2022-09-25T00:25:52;100502.24;;;8.52;71.63
54924;BME280;40825;52.270;20.984;2022-09-25T00:26:15;100503.21;;;8.51;71.72
54924;BME280;40825;52.270;20.984;2022-09-25T00:26:38;100501.64;;;8.51;71.69
54924;BME280;40825;52.270;20.984;2022-09-25T00:27:00;100503.83;;;8.50;71.66
54924;BME280;40825;52.270;20.984;2022-09-25T00:27:21;100501.55;;;8.50;71.78
54924;BME280;40825;52.270;20.984;2022-09-25T00:27:43;100503.69;;;8.50;71.91
54924;BME280;40825;52.270;20.984;2022-09-25T00:28:06;100503.80;;;8.49;71.79
54924;BME280;40825;52.270;20.984;2022-09-25T00:28:27;100503.16;;;8.48;71.73
54924;BME280;40825;52.270;20.984;2022-09-25T00:28:52;100500.38;;;8.48;71.75
54924;BME280;40825;52.270;20.984;2022-09-25T00:29:15;100507.52;;;8.47;72.02
54924;BME280;40825;52.270;20.984;2022-09-25T00:29:38;100503.41;;;8.46;71.93
54924;BME280;40825;52.270;20.984;2022-09-25T00:29:59;100505.58;;;8.46;71.75
54924;BME280;40825;52.270;20.984;2022-09-25T00:30:21;100501.94;;;8.45;71.72
54924;BME280;40825;52.270;20.984;2022-09-25T00:30:42;100505.48;;;8.45;71.63
54924;BME280;40825;52.270;20.984;2022-09-25T00:31:04;100503.27;;;8.44;71.74
54924;BME280;40825;52.270;20.984;2022-09-25T00:31:26;100505.51;;;8.45;72.02
54924;BME280;40825;52.270;20.984;2022-09-25T00:31:49;100503.82;;;8.44;71.90
54924;BME280;40825;52.270;20.984;2022-09-25T00:32:10;100503.25;;;8.44;71.88
54924;BME280;40825;52.270;20.984;2022-09-25T00:32:32;100504.31;;;8.44;71.82
54924;BME280;40825;52.270;20.984;2022-09-25T00:32:54;100504.35;;;8.44;72.12
54924;BME280;40825;52.270;20.984;2022-09-25T00:33:16;100507.21;;;8.44;72.31
54924;BME280;40825;52.270;20.984;2022-09-25T00:33:37;100502.69;;;8.43;71.95
54924;BME280;40825;52.270;20.984;2022-09-25T00:34:00;100505.88;;;8.43;71.85
54924;BME280;40825;52.270;20.984;2022-09-25T00:34:22;100504.16;;;8.43;72.01
54924;BME280;40825;52.270;20.984;2022-09-25T00:34:43;100505.48;;;8.42;71.94
54924;BME280;40825;52.270;20.984;2022-09-25T00:35:05;100507.85;;;8.41;71.89
54924;BME280;40825;52.270;20.984;2022-09-25T00:35:27;100506.86;;;8.40;71.79
54924;BME280;40825;52.270;20.984;2022-09-25T00:35:48;100503.53;;;8.40;71.87
54924;BME280;40825;52.270;20.984;2022-09-25T00:36:10;100504.44;;;8.40;71.90
54924;BME280;40825;52.270;20.984;2022-09-25T00:36:31;100500.80;;;8.41;71.82
54924;BME280;40825;52.270;20.984;2022-09-25T00:36:53;100503.21;;;8.40;71.95
54924;BME280;40825;52.270;20.984;2022-09-25T00:37:15;100501.62;;;8.40;71.83
54924;BME280;40825;52.270;20.984;2022-09-25T00:37:36;100501.41;;;8.40;71.82
54924;BME280;40825;52.270;20.984;2022-09-25T00:37:58;100501.02;;;8.40;71.92
54924;BME280;40825;52.270;20.984;2022-09-25T00:38:19;100502.61;;;8.40;71.99
54924;BME280;40825;52.270;20.984;2022-09-25T00:38:41;100499.81;;;8.40;72.01
54924;BME280;40825;52.270;20.984;2022-09-25T00:39:04;100497.92;;;8.39;71.88
54924;BME280;40825;52.270;20.984;2022-09-25T00:39:26;100503.98;;;8.39;71.95
54924;BME280;40825;52.270;20.984;2022-09-25T00:39:47;100501.73;;;8.39;71.97
54924;BME280;40825;52.270;20.984;2022-09-25T00:40:09;100504.64;;;8.40;71.99
54924;BME280;40825;52.270;20.984;2022-09-25T00:40:30;100499.16;;;8.40;71.99
54924;BME280;40825;52.270;20.984;2022-09-25T00:40:52;100498.88;;;8.40;72.08
54924;BME280;40825;52.270;20.984;2022-09-25T00:41:19;100500.23;;;8.41;72.15
54924;BME280;40825;52.270;20.984;2022-09-25T00:41:41;100498.90;;;8.42;72.17
54924;BME280;40825;52.270;20.984;2022-09-25T00:42:03;100498.08;;;8.41;72.04
54924;BME280;40825;52.270;20.984;2022-09-25T00:42:24;100495.17;;;8.42;72.15
54924;BME280;40825;52.270;20.984;2022-09-25T00:42:46;100497.11;;;8.42;72.13
54924;BME280;40825;52.270;20.984;2022-09-25T00:43:11;100502.00;;;8.43;72.02
54924;BME280;40825;52.270;20.984;2022-09-25T00:43:38;100497.09;;;8.42;72.02
54924;BME280;40825;52.270;20.984;2022-09-25T00:44:00;100494.64;;;8.42;72.36
54924;BME280;40825;52.270;20.984;2022-09-25T00:45:04;100500.64;;;8.41;72.21
54924;BME280;40825;52.270;20.984;2022-09-25T00:45:26;100497.13;;;8.40;72.16
54924;BME280;40825;52.270;20.984;2022-09-25T00:45:47;100498.95;;;8.40;72.10
54924;BME280;40825;52.270;20.984;2022-09-25T00:46:20;100496.66;;;8.40;72.10
54924;BME280;40825;52.270;20.984;2022-09-25T00:46:42;100497.27;;;8.39;72.15
54924;BME280;40825;52.270;20.984;2022-09-25T00:47:04;100492.34;;;8.39;72.46
54924;BME280;40825;52.270;20.984;2022-09-25T00:47:39;100495.73;;;8.39;72.48
54924;BME280;40825;52.270;20.984;2022-09-25T00:48:04;100489.33;;;8.37;72.18
54924;BME280;40825;52.270;20.984;2022-09-25T00:48:27;100491.92;;;8.36;72.23
54924;BME280;40825;52.270;20.984;2022-09-25T00:49:21;100491.64;;;8.35;72.20
54924;BME280;40825;52.270;20.984;2022-09-25T00:49:45;100485.34;;;8.35;72.48
54924;BME280;40825;52.270;20.984;2022-09-25T00:50:41;100488.34;;;8.33;72.31
54924;BME280;40825;52.270;20.984;2022-09-25T00:51:07;100487.75;;;8.32;72.50
54924;BME280;40825;52.270;20.984;2022-09-25T00:51:36;100486.56;;;8.32;72.27
54924;BME280;40825;52.270;20.984;2022-09-25T00:52:02;100487.50;;;8.32;72.42
54924;BME280;40825;52.270;20.984;2022-09-25T00:52:25;100489.45;;;8.31;72.59
54924;BME280;40825;52.270;20.984;2022-09-25T00:52:47;100485.96;;;8.31;72.51
54924;BME280;40825;52.270;20.984;2022-09-25T00:53:17;100486.63;;;8.31;72.47
54924;BME280;40825;52.270;20.984;2022-09-25T00:53:40;100488.16;;;8.32;72.53
54924;BME280;40825;52.270;20.984;2022-09-25T00:54:02;100489.82;;;8.31;72.41
54924;BME280;40825;52.270;20.984;2022-09-25T00:54:26;100486.96;;;8.32;72.43
54924;BME280;40825;52.270;20.984;2022-09-25T00:54:50;100487.33;;;8.31;72.45
54924;BME280;40825;52.270;20.984;2022-09-25T00:55:14;100490.12;;;8.32;72.52
54924;BME280;40825;52.270;20.984;2022-09-25T00:55:37;100488.36;;;8.32;72.45
54924;BME280;40825;52.270;20.984;2022-09-25T00:56:02;100489.27;;;8.33;72.71
54924;BME280;40825;52.270;20.984;2022-09-25T00:56:24;100486.67;;;8.32;72.53
54924;BME280;40825;52.270;20.984;2022-09-25T00:56:47;100490.74;;;8.32;72.47
54924;BME280;40825;52.270;20.984;2022-09-25T00:57:09;100486.81;;;8.33;72.59
54924;BME280;40825;52.270;20.984;2022-09-25T00:57:33;100487.31;;;8.33;72.59
54924;BME280;40825;52.270;20.984;2022-09-25T00:57:58;100489.10;;;8.33;72.66
54924;BME280;40825;52.270;20.984;2022-09-25T00:58:23;100487.27;;;8.32;72.49
54924;BME280;40825;52.270;20.984;2022-09-25T00:58:45;100487.95;;;8.32;72.56
54924;BME280;40825;52.270;20.984;2022-09-25T00:59:08;100486.52;;;8.32;72.66
54924;BME280;40825;52.270;20.984;2022-09-25T00:59:38;100487.33;;;8.31;72.53
54924;BME280;40825;52.270;20.984;2022-09-25T01:00:03;100486.95;;;8.31;72.68
54924;BME280;40825;52.270;20.984;2022-09-25T01:00:26;100482.96;;;8.32;72.64
54924;BME280;40825;52.270;20.984;2022-09-25T01:00:48;100484.19;;;8.32;72.61
54924;BME280;40825;52.270;20.984;2022-09-25T01:01:12;100486.56;;;8.32;72.60
54924;BME280;40825;52.270;20.984;2022-09-25T01:01:34;100484.14;;;8.31;72.56
54924;BME280;40825;52.270;20.984;2022-09-25T01:01:56;100484.30;;;8.31;72.63
54924;BME280;40825;52.270;20.984;2022-09-25T01:02:28;100486.89;;;8.32;72.72
54924;BME280;40825;52.270;20.984;2022-09-25T01:02:51;100487.30;;;8.32;72.76
54924;BME280;40825;52.270;20.984;2022-09-25T01:03:13;100487.83;;;8.32;72.82
54924;BME280;40825;52.270;20.984;2022-09-25T01:03:37;100487.89;;;8.31;72.73
54924;BME280;40825;52.270;20.984;2022-09-25T01:04:00;100485.44;;;8.31;72.75
54924;BME280;40825;52.270;20.984;2022-09-25T01:04:22;100487.48;;;8.30;72.70
54924;BME280;40825;52.270;20.984;2022-09-25T01:04:44;100489.27;;;8.30;72.78
54924;BME280;40825;52.270;20.984;2022-09-25T01:05:08;100489.75;;;8.30;72.80
54924;BME280;40825;52.270;20.984;2022-09-25T01:05:32;100488.65;;;8.31;72.79
54924;BME280;40825;52.270;20.984;2022-09-25T01:05:55;100493.17;;;8.31;72.81
54924;BME280;40825;52.270;20.984;2022-09-25T01:06:19;100489.79;;;8.32;72.93
54924;BME280;40825;52.270;20.984;2022-09-25T01:06:42;100488.73;;;8.32;72.80
54924;BME280;40825;52.270;20.984;2022-09-25T01:07:04;100489.39;;;8.32;72.85
54924;BME280;40825;52.270;20.984;2022-09-25T01:07:29;100486.13;;;8.31;72.82
54924;BME280;40825;52.270;20.984;2022-09-25T01:07:52;100487.70;;;8.31;72.83
54924;BME280;40825;52.270;20.984;2022-09-25T01:08:17;100491.02;;;8.32;72.92
54924;BME280;40825;52.270;20.984;2022-09-25T01:08:40;100491.02;;;8.32;72.86
54924;BME280;40825;52.270;20.984;2022-09-25T01:09:02;100489.59;;;8.32;72.93
54924;BME280;40825;52.270;20.984;2022-09-25T01:09:24;100488.84;;;8.32;72.90
54924;BME280;40825;52.270;20.984;2022-09-25T01:09:46;100491.15;;;8.32;72.86
54924;BME280;40825;52.270;20.984;2022-09-25T01:10:08;100490.38;;;8.33;72.89
54924;BME280;40825;52.270;20.984;2022-09-25T01:10:30;100489.47;;;8.33;72.88
54924;BME280;40825;52.270;20.984;2022-09-25T01:10:52;100488.98;;;8.32;73.09
54924;BME280;40825;52.270;20.984;2022-09-25T01:11:15;100490.98;;;8.32;72.98
54924;BME280;40825;52.270;20.984;2022-09-25T01:11:37;100488.86;;;8.32;72.90
54924;BME280;40825;52.270;20.984;2022-09-25T01:11:58;100485.77;;;8.31;72.91
54924;BME280;40825;52.270;20.984;2022-09-25T01:12:20;100490.05;;;8.32;72.97
54924;BME280;40825;52.270;20.984;2022-09-25T01:12:43;100490.58;;;8.32;72.93
54924;BME280;40825;52.270;20.984;2022-09-25T01:13:06;100489.11;;;8.33;72.98
54924;BME280;40825;52.270;20.984;2022-09-25T01:13:27;100491.64;;;8.32;73.23
54924;BME280;40825;52.270;20.984;2022-09-25T01:13:54;100492.58;;;8.32;73.11
54924;BME280;40825;52.270;20.984;2022-09-25T01:14:16;100492.64;;;8.31;73.00
54924;BME280;40825;52.270;20.984;2022-09-25T01:14:38;100490.52;;;8.32;72.92
54924;BME280;40825;52.270;20.984;2022-09-25T01:15:00;100489.85;;;8.31;73.03
54924;BME280;40825;52.270;20.984;2022-09-25T01:15:37;100489.92;;;8.30;73.02
54924;BME280;40825;52.270;20.984;2022-09-25T01:16:03;100488.69;;;8.30;73.02
54924;BME280;40825;52.270;20.984;2022-09-25T01:16:51;100490.45;;;8.30;73.04
54924;BME280;40825;52.270;20.984;2022-09-25T01:17:53;100491.19;;;8.30;73.06
54924;BME280;40825;52.270;20.984;2022-09-25T01:18:22;100487.83;;;8.30;73.12
54924;BME280;40825;52.270;20.984;2022-09-25T01:19:00;100490.75;;;8.31;73.20
54924;BME280;40825;52.270;20.984;2022-09-25T01:20:22;100487.79;;;8.32;73.12
54924;BME280;40825;52.270;20.984;2022-09-25T01:21:51;100489.02;;;8.32;73.11
54924;BME280;40825;52.270;20.984;2022-09-25T01:23:30;100485.16;;;8.29;73.30
54924;BME280;40825;52.270;20.984;2022-09-25T01:24:03;100485.45;;;8.25;73.18
54924;BME280;40825;52.270;20.984;2022-09-25T01:24:54;100484.41;;;8.24;73.30
54924;BME280;40825;52.270;20.984;2022-09-25T01:26:19;100485.23;;;8.23;73.29
54924;BME280;40825;52.270;20.984;2022-09-25T01:27:29;100483.16;;;8.19;73.46
54924;BME280;40825;52.270;20.984;2022-09-25T01:27:33;100484.37;;;8.21;73.31
54924;BME280;40825;52.270;20.984;2022-09-25T01:28:13;100485.67;;;8.18;73.25
54924;BME280;40825;52.270;20.984;2022-09-25T01:28:49;100484.27;;;8.17;73.37
54924;BME280;40825;52.270;20.984;2022-09-25T01:29:21;100487.46;;;8.16;73.55
54924;BME280;40825;52.270;20.984;2022-09-25T01:29:52;100485.77;;;8.15;73.35
54924;BME280;40825;52.270;20.984;2022-09-25T01:30:16;100484.44;;;8.14;73.32
54924;BME280;40825;52.270;20.984;2022-09-25T01:30:40;100483.05;;;8.14;73.44
54924;BME280;40825;52.270;20.984;2022-09-25T01:31:07;100478.27;;;8.14;73.48
54924;BME280;40825;52.270;20.984;2022-09-25T01:31:41;100481.48;;;8.14;73.35
54924;BME280;40825;52.270;20.984;2022-09-25T01:32:09;100479.58;;;8.13;73.39
54924;BME280;40825;52.270;20.984;2022-09-25T01:32:52;100477.60;;;8.12;73.41
54924;BME280;40825;52.270;20.984;2022-09-25T01:33:16;100478.42;;;8.12;73.60
54924;BME280;40825;52.270;20.984;2022-09-25T01:33:41;100478.09;;;8.12;73.40
54924;BME280;40825;52.270;20.984;2022-09-25T01:34:14;100480.30;;;8.11;73.52
54924;BME280;40825;52.270;20.984;2022-09-25T01:34:42;100478.90;;;8.11;73.54
54924;BME280;40825;52.270;20.984;2022-09-25T01:35:39;100480.35;;;8.13;73.58
54924;BME280;40825;52.270;20.984;2022-09-25T01:36:04;100480.45;;;8.13;73.83
54924;BME280;40825;52.270;20.984;2022-09-25T01:36:35;100480.35;;;8.13;73.61
54924;BME280;40825;52.270;20.984;2022-09-25T01:37:00;100479.89;;;8.12;73.67
54924;BME280;40825;52.270;20.984;2022-09-25T01:38:24;100484.16;;;8.10;73.66
54924;BME280;40825;52.270;20.984;2022-09-25T01:38:54;100482.00;;;8.11;73.68
54924;BME280;40825;52.270;20.984;2022-09-25T01:39:21;100481.77;;;8.11;73.64
54924;BME280;40825;52.270;20.984;2022-09-25T01:39:49;100482.23;;;8.12;73.70
54924;BME280;40825;52.270;20.984;2022-09-25T01:40:21;100484.48;;;8.12;73.63
54924;BME280;40825;52.270;20.984;2022-09-25T01:40:47;100481.39;;;8.13;73.70
54924;BME280;40825;52.270;20.984;2022-09-25T01:41:11;100483.67;;;8.13;73.69
54924;BME280;40825;52.270;20.984;2022-09-25T01:41:39;100483.61;;;8.14;73.71
54924;BME280;40825;52.270;20.984;2022-09-25T01:42:08;100480.81;;;8.13;73.90
54924;BME280;40825;52.270;20.984;2022-09-25T01:42:39;100479.00;;;8.12;73.92
54924;BME280;40825;52.270;20.984;2022-09-25T01:43:10;100478.91;;;8.11;73.77
54924;BME280;40825;52.270;20.984;2022-09-25T01:44:20;100479.45;;;8.10;73.69
54924;BME280;40825;52.270;20.984;2022-09-25T01:44:53;100476.52;;;8.09;73.74
54924;BME280;40825;52.270;20.984;2022-09-25T01:45:25;100477.20;;;8.08;73.72
54924;BME280;40825;52.270;20.984;2022-09-25T01:45:57;100477.78;;;8.09;73.80
54924;BME280;40825;52.270;20.984;2022-09-25T01:46:20;100479.90;;;8.09;73.80
54924;BME280;40825;52.270;20.984;2022-09-25T01:46:46;100475.77;;;8.09;73.79
54924;BME280;40825;52.270;20.984;2022-09-25T01:47:08;100475.56;;;8.10;73.72
54924;BME280;40825;52.270;20.984;2022-09-25T01:47:33;100473.00;;;8.10;73.82
54924;BME280;40825;52.270;20.984;2022-09-25T01:47:58;100474.89;;;8.11;73.95
54924;BME280;40825;52.270;20.984;2022-09-25T01:48:30;100475.54;;;8.11;73.96
54924;BME280;40825;52.270;20.984;2022-09-25T01:48:54;100472.72;;;8.11;74.03
54924;BME280;40825;52.270;20.984;2022-09-25T01:49:29;100471.03;;;8.10;73.97
54924;BME280;40825;52.270;20.984;2022-09-25T01:49:57;100471.84;;;8.10;73.85
54924;BME280;40825;52.270;20.984;2022-09-25T01:50:23;100474.13;;;8.10;73.92
54924;BME280;40825;52.270;20.984;2022-09-25T01:50:48;100473.16;;;8.10;73.85
54924;BME280;40825;52.270;20.984;2022-09-25T01:51:20;100475.95;;;8.11;73.80
54924;BME280;40825;52.270;20.984;2022-09-25T01:51:45;100474.54;;;8.12;73.87
54924;BME280;40825;52.270;20.984;2022-09-25T01:52:20;100471.30;;;8.13;73.90
54924;BME280;40825;52.270;20.984;2022-09-25T01:52:45;100469.23;;;8.14;73.81
54924;BME280;40825;52.270;20.984;2022-09-25T01:53:08;100472.64;;;8.15;73.85
54924;BME280;40825;52.270;20.984;2022-09-25T01:53:33;100472.16;;;8.16;73.83
54924;BME280;40825;52.270;20.984;2022-09-25T01:54:07;100475.20;;;8.18;74.05
54924;BME280;40825;52.270;20.984;2022-09-25T01:54:31;100471.48;;;8.19;74.04
54924;BME280;40825;52.270;20.984;2022-09-25T01:54:56;100471.38;;;8.20;73.95
54924;BME280;40825;52.270;20.984;2022-09-25T01:55:20;100473.57;;;8.21;74.01
54924;BME280;40825;52.270;20.984;2022-09-25T01:55:48;100471.55;;;8.21;73.97
54924;BME280;40825;52.270;20.984;2022-09-25T01:56:28;100471.50;;;8.22;73.96
54924;BME280;40825;52.270;20.984;2022-09-25T01:56:58;100473.54;;;8.23;73.95
54924;BME280;40825;52.270;20.984;2022-09-25T01:57:28;100470.81;;;8.22;74.01
54924;BME280;40825;52.270;20.984;2022-09-25T01:57:57;100468.79;;;8.21;73.94
54924;BME280;40825;52.270;20.984;2022-09-25T01:58:47;100474.04;;;8.20;73.80
54924;BME280;40825;52.270;20.984;2022-09-25T01:59:15;100472.84;;;8.19;73.92
54924;BME280;40825;52.270;20.984;2022-09-25T01:59:39;100470.46;;;8.19;74.02
54924;BME280;40825;52.270;20.984;2022-09-25T02:00:05;100472.42;;;8.17;73.89
54924;BME280;40825;52.270;20.984;2022-09-25T02:00:29;100472.50;;;8.16;73.98
54924;BME280;40825;52.270;20.984;2022-09-25T02:00:53;100473.10;;;8.16;74.13
54924;BME280;40825;52.270;20.984;2022-09-25T02:01:20;100472.48;;;8.15;74.00
54924;BME280;40825;52.270;20.984;2022-09-25T02:01:43;100469.36;;;8.14;73.99
54924;BME280;40825;52.270;20.984;2022-09-25T02:02:08;100468.16;;;8.14;74.12
54924;BME280;40825;52.270;20.984;2022-09-25T02:02:36;100473.48;;;8.14;73.88
54924;BME280;40825;52.270;20.984;2022-09-25T02:03:07;100467.36;;;8.13;73.86
54924;BME280;40825;52.270;20.984;2022-09-25T02:03:33;100469.76;;;8.12;74.00
54924;BME280;40825;52.270;20.984;2022-09-25T02:03:57;100468.30;;;8.13;74.03
54924;BME280;40825;52.270;20.984;2022-09-25T02:04:23;100465.98;;;8.11;74.11
54924;BME280;40825;52.270;20.984;2022-09-25T02:05:09;100468.41;;;8.10;73.95
54924;BME280;40825;52.270;20.984;2022-09-25T02:05:33;100469.02;;;8.09;74.06
54924;BME280;40825;52.270;20.984;2022-09-25T02:06:01;100472.49;;;8.08;74.18
54924;BME280;40825;52.270;20.984;2022-09-25T02:06:22;100468.70;;;8.08;74.08
54924;BME280;40825;52.270;20.984;2022-09-25T02:06:45;100468.09;;;8.07;74.18
54924;BME280;40825;52.270;20.984;2022-09-25T02:07:09;100469.32;;;8.05;74.14
54924;BME280;40825;52.270;20.984;2022-09-25T02:07:32;100471.18;;;8.04;74.02
54924;BME280;40825;52.270;20.984;2022-09-25T02:08:00;100464.94;;;8.03;73.99
54924;BME280;40825;52.270;20.984;2022-09-25T02:08:47;100464.92;;;8.02;74.65
54924;BME280;40825;52.270;20.984;2022-09-25T02:09:06;100469.77;;;7.99;74.07
54924;BME280;40825;52.270;20.984;2022-09-25T02:10:22;100472.55;;;7.98;74.00
54924;BME280;40825;52.270;20.984;2022-09-25T02:10:47;100468.23;;;7.97;74.03
54924;BME280;40825;52.270;20.984;2022-09-25T02:11:11;100468.32;;;7.96;73.82
54924;BME280;40825;52.270;20.984;2022-09-25T02:11:35;100468.55;;;7.96;73.73
54924;BME280;40825;52.270;20.984;2022-09-25T02:12:01;100469.56;;;7.95;73.97
54924;BME280;40825;52.270;20.984;2022-09-25T02:12:29;100465.85;;;7.93;73.79
54924;BME280;40825;52.270;20.984;2022-09-25T02:12:55;100467.58;;;7.92;73.87
54924;BME280;40825;52.270;20.984;2022-09-25T02:13:20;100468.75;;;7.91;73.86
54924;BME280;40825;52.270;20.984;2022-09-25T02:13:47;100469.23;;;7.90;73.81
54924;BME280;40825;52.270;20.984;2022-09-25T02:14:12;100465.01;;;7.90;73.75
54924;BME280;40825;52.270;20.984;2022-09-25T02:14:43;100466.96;;;7.90;73.80
54924;BME280;40825;52.270;20.984;2022-09-25T02:15:10;100465.81;;;7.89;73.83
54924;BME280;40825;52.270;20.984;2022-09-25T02:15:34;100467.98;;;7.88;73.80
54924;BME280;40825;52.270;20.984;2022-09-25T02:15:58;100466.45;;;7.88;73.90
54924;BME280;40825;52.270;20.984;2022-09-25T02:16:25;100466.36;;;7.87;73.77
54924;BME280;40825;52.270;20.984;2022-09-25T02:16:52;100467.86;;;7.86;73.78
54924;BME280;40825;52.270;20.984;2022-09-25T02:17:20;100468.83;;;7.85;73.79
54924;BME280;40825;52.270;20.984;2022-09-25T02:18:03;100465.61;;;7.84;73.86
54924;BME280;40825;52.270;20.984;2022-09-25T02:18:44;100464.39;;;7.82;73.98
54924;BME280;40825;52.270;20.984;2022-09-25T02:19:25;100464.30;;;7.82;73.84
54924;BME280;40825;52.270;20.984;2022-09-25T02:20:06;100465.23;;;7.81;73.87
54924;BME280;40825;52.270;20.984;2022-09-25T02:21:22;100463.36;;;7.80;73.83
54924;BME280;40825;52.270;20.984;2022-09-25T02:22:16;100462.87;;;7.80;73.85
54924;BME280;40825;52.270;20.984;2022-09-25T02:22:40;100461.84;;;7.80;73.77
54924;BME280;40825;52.270;20.984;2022-09-25T02:23:09;100460.48;;;7.79;73.85
54924;BME280;40825;52.270;20.984;2022-09-25T02:23:43;100459.61;;;7.79;73.99
54924;BME280;40825;52.270;20.984;2022-09-25T02:24:20;100460.55;;;7.79;73.81
54924;BME280;40825;52.270;20.984;2022-09-25T02:24:47;100458.46;;;7.78;73.82
54924;BME280;40825;52.270;20.984;2022-09-25T02:25:11;100457.30;;;7.78;73.96